首页
METAR-TAF:

METAR-TAF

机场 :

Boscobel Airport

Boscobel, 威斯康辛州, 美国

纬度: 43-09-22N, 经度: 090-40-39W, 海拔: 205米

当前天气观测

该预报发布于28分钟前的20:53 UTC
风速10节,风向西转西北,有时为15节阵风
温度 -4°C
湿度 68%
气压 1011 hPa
能見度: 14.5公里
阴天层高于2100英尺

METAR: KOVS 142053Z AUTO 29010G15KT 9SM OVC021 M04/M09 A2985 RMK AO2 SLP118 T10391094 53008

时间: 15:21 (21:21 UTC)


TAF: 丢失

超过4000个机场的气象观测和天气预报(METAR&TAF报告)。

可查询的气象台以黄色和红色小点在地图上表示。

将鼠标移到小点上方,可查看气象台名称。

然后点击查看天气观测和预报。

如需切换地图:点击带黑十字的绿色按钮放大地图;点击带横线的绿色按钮缩小地图;或者点击绿色箭头查看邻近地区的地图。


METAR-TAF: